createdAt,value
2023-03-23T00:00:03.957Z,0
2023-03-23T00:01:03.937Z,0
2023-03-23T00:02:03.941Z,0
2023-03-23T00:03:03.938Z,0
2023-03-23T00:04:03.963Z,0
2023-03-23T00:05:03.941Z,0
2023-03-23T00:06:03.943Z,0
2023-03-23T00:07:03.944Z,0
2023-03-23T00:08:03.943Z,0
2023-03-23T00:09:03.965Z,0
2023-03-23T00:10:03.937Z,0
2023-03-23T00:11:03.941Z,0
2023-03-23T00:12:03.956Z,0
2023-03-23T00:13:03.951Z,0
2023-03-23T00:14:03.968Z,0
2023-03-23T00:15:03.935Z,0
2023-03-23T00:16:04.456Z,0
2023-03-23T00:17:03.937Z,0
2023-03-23T00:18:03.943Z,0
2023-03-23T00:19:03.961Z,0
2023-03-23T00:20:03.944Z,0
2023-03-23T00:21:03.959Z,0
2023-03-23T00:22:03.943Z,0
2023-03-23T00:23:03.943Z,0
2023-03-23T00:24:03.980Z,0
2023-03-23T00:25:03.986Z,0
2023-03-23T00:26:03.940Z,0
2023-03-23T00:27:03.960Z,0
2023-03-23T00:28:03.943Z,0
2023-03-23T00:29:03.963Z,0
2023-03-23T00:30:03.946Z,0
2023-03-23T00:31:03.939Z,0
2023-03-23T00:32:03.941Z,0
2023-03-23T00:33:03.938Z,0
2023-03-23T00:34:03.975Z,0
2023-03-23T00:35:03.944Z,0
2023-03-23T00:36:03.979Z,0
2023-03-23T00:37:03.938Z,0
2023-03-23T00:38:03.948Z,0
2023-03-23T00:39:03.964Z,0
2023-03-23T00:40:03.942Z,0
2023-03-23T00:41:03.943Z,0
2023-03-23T00:42:03.967Z,0
2023-03-23T00:43:03.948Z,0
2023-03-23T00:44:03.968Z,0
2023-03-23T00:45:03.947Z,0
2023-03-23T00:46:03.949Z,0
2023-03-23T00:47:03.947Z,0
2023-03-23T00:48:03.944Z,0
2023-03-23T00:49:03.969Z,0
2023-03-23T00:50:03.950Z,0
2023-03-23T00:51:03.946Z,0
2023-03-23T00:52:03.946Z,0
2023-03-23T00:53:03.946Z,0
2023-03-23T00:54:03.962Z,0
2023-03-23T00:55:03.947Z,0
2023-03-23T00:56:03.951Z,0
2023-03-23T00:57:03.965Z,0
2023-03-23T00:58:03.956Z,0
2023-03-23T00:59:03.961Z,0
2023-03-23T01:00:05.512Z,0
2023-03-23T01:01:03.949Z,0
2023-03-23T01:02:03.959Z,0
2023-03-23T01:03:03.949Z,0
2023-03-23T01:04:03.970Z,0
2023-03-23T01:05:03.959Z,0
2023-03-23T01:06:03.948Z,0
2023-03-23T01:07:03.945Z,0
2023-03-23T01:08:03.948Z,0
2023-03-23T01:09:03.961Z,0
2023-03-23T01:10:03.946Z,0
2023-03-23T01:11:03.953Z,0
2023-03-23T01:12:03.960Z,0
2023-03-23T01:13:03.953Z,0
2023-03-23T01:14:03.969Z,0
2023-03-23T01:15:03.944Z,0
2023-03-23T01:16:03.947Z,0
2023-03-23T01:17:03.942Z,0
2023-03-23T01:18:03.946Z,0
2023-03-23T01:19:03.971Z,0
2023-03-23T01:20:03.946Z,0
2023-03-23T01:21:03.959Z,0
2023-03-23T01:22:03.952Z,0
2023-03-23T01:23:03.945Z,0
2023-03-23T01:24:03.966Z,0
2023-03-23T01:25:03.974Z,0
2023-03-23T01:26:03.950Z,0
2023-03-23T01:27:03.958Z,0
2023-03-23T01:28:03.943Z,0
2023-03-23T01:29:03.971Z,0
2023-03-23T01:30:03.947Z,0
2023-03-23T01:31:14.281Z,0
2023-03-23T01:32:03.949Z,0
2023-03-23T01:33:03.944Z,0
2023-03-23T01:34:03.969Z,0
2023-03-23T01:35:03.948Z,0
2023-03-23T01:36:03.981Z,0
2023-03-23T01:37:03.953Z,0
2023-03-23T01:38:03.940Z,0
2023-03-23T01:39:03.970Z,0
2023-03-23T01:40:03.951Z,0
2023-03-23T01:41:03.961Z,0
2023-03-23T01:42:04.000Z,0
2023-03-23T01:43:03.949Z,0
2023-03-23T01:44:03.962Z,0
2023-03-23T01:45:03.950Z,0
2023-03-23T01:46:03.954Z,0
2023-03-23T01:47:03.954Z,0
2023-03-23T01:48:03.959Z,0
2023-03-23T01:49:04.097Z,0
2023-03-23T01:50:03.956Z,0
2023-03-23T01:51:03.954Z,0
2023-03-23T01:52:03.954Z,0
2023-03-23T01:53:03.961Z,0
2023-03-23T01:54:03.986Z,0
2023-03-23T01:55:03.997Z,0
2023-03-23T01:56:03.968Z,0
2023-03-23T01:57:03.972Z,0
2023-03-23T01:58:03.959Z,0
2023-03-23T01:59:03.979Z,0
2023-03-23T02:00:03.958Z,0
2023-03-23T02:01:03.944Z,0
2023-03-23T02:02:03.958Z,0
2023-03-23T02:03:03.958Z,0
2023-03-23T02:04:03.976Z,0
2023-03-23T02:05:03.963Z,0
2023-03-23T02:06:03.951Z,0
2023-03-23T02:07:03.955Z,0
2023-03-23T02:08:03.962Z,0
2023-03-23T02:09:10.339Z,0
2023-03-23T02:10:03.955Z,0
2023-03-23T02:11:03.953Z,0
2023-03-23T02:12:03.974Z,0
2023-03-23T02:13:03.955Z,0
2023-03-23T02:14:03.970Z,0
2023-03-23T02:15:03.954Z,0
2023-03-23T02:16:03.980Z,0
2023-03-23T02:17:03.951Z,0
2023-03-23T02:18:03.960Z,0
2023-03-23T02:19:03.967Z,0
2023-03-23T02:20:03.950Z,0
2023-03-23T02:21:03.954Z,0
2023-03-23T02:22:03.977Z,0
2023-03-23T02:23:03.943Z,0
2023-03-23T02:24:03.976Z,0
2023-03-23T02:25:03.945Z,0
2023-03-23T02:26:03.951Z,0
2023-03-23T02:27:03.974Z,0
2023-03-23T02:28:03.945Z,0
2023-03-23T02:29:03.980Z,0
2023-03-23T02:30:03.955Z,0
2023-03-23T02:31:03.944Z,0
2023-03-23T02:32:03.947Z,0
2023-03-23T02:33:03.957Z,0
2023-03-23T02:34:03.968Z,0
2023-03-23T02:35:03.962Z,0
2023-03-23T02:36:03.993Z,0
2023-03-23T02:37:03.954Z,0
2023-03-23T02:38:03.946Z,0
2023-03-23T02:39:03.973Z,0
2023-03-23T02:40:03.957Z,0
2023-03-23T02:41:03.953Z,0
2023-03-23T02:42:04.064Z,0
2023-03-23T02:43:03.950Z,0
2023-03-23T02:44:03.963Z,0
2023-03-23T02:45:03.957Z,0
2023-03-23T02:46:03.959Z,0
2023-03-23T02:47:03.949Z,0
2023-03-23T02:48:03.957Z,0
2023-03-23T02:49:03.989Z,0
2023-03-23T02:50:03.940Z,0
2023-03-23T02:51:03.950Z,0
2023-03-23T02:52:03.950Z,0
2023-03-23T02:53:03.949Z,0
2023-03-23T02:54:03.962Z,0
2023-03-23T02:55:03.951Z,0
2023-03-23T02:56:03.956Z,0
2023-03-23T02:57:03.964Z,0
2023-03-23T02:58:03.952Z,0
2023-03-23T02:59:03.959Z,0
2023-03-23T03:00:03.947Z,0
2023-03-23T03:01:03.960Z,0
2023-03-23T03:02:03.949Z,0
2023-03-23T03:03:03.962Z,0
2023-03-23T03:04:03.972Z,0
2023-03-23T03:05:03.949Z,0
2023-03-23T03:06:03.956Z,0
2023-03-23T03:07:03.976Z,0
2023-03-23T03:08:03.955Z,0
2023-03-23T03:09:03.964Z,0
2023-03-23T03:10:03.945Z,0
2023-03-23T03:11:03.943Z,0
2023-03-23T03:12:03.973Z,0
2023-03-23T03:13:03.958Z,0
2023-03-23T03:14:03.968Z,0
2023-03-23T03:15:03.950Z,0
2023-03-23T03:16:03.948Z,0
2023-03-23T03:17:03.950Z,0
2023-03-23T03:18:03.964Z,0
2023-03-23T03:19:03.971Z,0
2023-03-23T03:20:03.958Z,0
2023-03-23T03:21:03.958Z,0
2023-03-23T03:22:03.947Z,0
2023-03-23T03:23:03.950Z,0
2023-03-23T03:24:03.960Z,0
2023-03-23T03:25:17.864Z,0
2023-03-23T03:26:03.960Z,0
2023-03-23T03:27:03.975Z,0
2023-03-23T03:28:04.247Z,0
2023-03-23T03:29:03.970Z,0
2023-03-23T03:30:03.954Z,0
2023-03-23T03:31:03.947Z,0
2023-03-23T03:32:03.956Z,0
2023-03-23T03:33:03.970Z,0
2023-03-23T03:34:03.975Z,0
2023-03-23T03:35:03.965Z,0
2023-03-23T03:36:03.978Z,0
2023-03-23T03:37:03.959Z,0
2023-03-23T03:38:03.957Z,0
2023-03-23T03:39:03.968Z,0
2023-03-23T03:40:03.975Z,0
2023-03-23T03:41:03.957Z,0
2023-03-23T03:42:03.971Z,0
2023-03-23T03:43:03.955Z,0
2023-03-23T03:44:03.966Z,0
2023-03-23T03:45:03.951Z,0
2023-03-23T03:46:03.958Z,0
2023-03-23T03:47:03.952Z,0
2023-03-23T03:48:03.945Z,0
2023-03-23T03:49:03.978Z,0
2023-03-23T03:50:03.954Z,0
2023-03-23T03:51:03.962Z,0
2023-03-23T03:52:03.949Z,0
2023-03-23T03:53:03.956Z,0
2023-03-23T03:54:03.979Z,0
2023-03-23T03:55:03.959Z,0
2023-03-23T03:56:03.949Z,0
2023-03-23T03:57:03.982Z,0
2023-03-23T03:58:03.945Z,0
2023-03-23T03:59:21.093Z,0
2023-03-23T04:00:03.951Z,0
2023-03-23T04:01:03.967Z,0
2023-03-23T04:02:03.961Z,0
2023-03-23T04:03:03.958Z,0
2023-03-23T04:04:03.966Z,0
2023-03-23T04:05:03.953Z,0
2023-03-23T04:06:03.972Z,0
2023-03-23T04:07:03.960Z,0
2023-03-23T04:08:09.508Z,0
2023-03-23T04:09:07.828Z,0
2023-03-23T04:10:03.947Z,0
2023-03-23T04:11:03.952Z,0
2023-03-23T04:12:03.976Z,0
2023-03-23T04:13:03.964Z,0
2023-03-23T04:14:03.980Z,0
2023-03-23T04:15:06.009Z,0
2023-03-23T04:16:10.104Z,0
2023-03-23T04:17:03.950Z,0
2023-03-23T04:18:03.951Z,0
2023-03-23T04:19:03.966Z,0
2023-03-23T04:20:03.974Z,0
2023-03-23T04:21:04.378Z,0
2023-03-23T04:22:03.957Z,0
2023-03-23T04:23:03.955Z,0
2023-03-23T04:24:03.976Z,0
2023-03-23T04:25:03.971Z,0
2023-03-23T04:26:03.950Z,0
2023-03-23T04:27:03.978Z,0
2023-03-23T04:28:03.955Z,0
2023-03-23T04:29:03.981Z,0
2023-03-23T04:30:03.944Z,0
2023-03-23T04:31:06.183Z,0
2023-03-23T04:32:03.957Z,0
2023-03-23T04:33:03.950Z,0
2023-03-23T04:34:03.974Z,0
2023-03-23T04:35:12.881Z,0
2023-03-23T04:36:03.987Z,1
2023-03-23T04:37:03.952Z,1
2023-03-23T04:38:03.958Z,3
2023-03-23T04:39:03.974Z,3
2023-03-23T04:40:03.960Z,5
2023-03-23T04:41:03.949Z,7
2023-03-23T04:42:03.975Z,9
2023-03-23T04:43:03.956Z,11
2023-03-23T04:44:03.973Z,12
2023-03-23T04:45:03.960Z,14
2023-03-23T04:46:03.952Z,16
2023-03-23T04:47:03.963Z,20
2023-03-23T04:48:03.949Z,22
2023-03-23T04:49:03.979Z,25
2023-03-23T04:50:03.953Z,29
2023-03-23T04:51:03.954Z,35
2023-03-23T04:52:03.954Z,40
2023-03-23T04:53:03.971Z,47
2023-03-23T04:54:03.977Z,55
2023-03-23T04:55:03.959Z,66
2023-03-23T04:56:03.952Z,77
2023-03-23T04:57:03.968Z,90
2023-03-23T04:58:03.957Z,105
2023-03-23T04:59:03.968Z,121
2023-03-23T05:00:03.942Z,140
2023-03-23T05:01:03.985Z,160
2023-03-23T05:02:14.634Z,184
2023-03-23T05:03:03.949Z,213
2023-03-23T05:04:03.969Z,245
2023-03-23T05:05:03.954Z,280
2023-03-23T05:06:03.962Z,280
2023-03-23T05:07:03.946Z,361
2023-03-23T05:08:03.957Z,409
2023-03-23T05:09:03.968Z,458
2023-03-23T05:10:03.943Z,505
2023-03-23T05:11:03.946Z,554
2023-03-23T05:12:03.973Z,602
2023-03-23T05:13:03.959Z,646
2023-03-23T05:14:03.962Z,693
2023-03-23T05:15:03.945Z,731
2023-03-23T05:16:03.948Z,761
2023-03-23T05:17:03.970Z,790
2023-03-23T05:18:03.942Z,818
2023-03-23T05:19:03.976Z,831
2023-03-23T05:20:03.941Z,864
2023-03-23T05:21:03.956Z,903
2023-03-23T05:22:03.951Z,940
2023-03-23T05:23:03.952Z,973
2023-03-23T05:24:03.973Z,1017
2023-03-23T05:25:03.957Z,1069
2023-03-23T05:26:03.949Z,1124
2023-03-23T05:27:03.981Z,1181
2023-03-23T05:28:03.955Z,1257
2023-03-23T05:29:03.971Z,1334
2023-03-23T05:30:03.937Z,1389
2023-03-23T05:31:03.949Z,1435
2023-03-23T05:32:03.944Z,1457
2023-03-23T05:33:03.956Z,1470
2023-03-23T05:34:03.961Z,1507
2023-03-23T05:35:03.953Z,1540
2023-03-23T05:36:03.984Z,1594
2023-03-23T05:37:03.943Z,1671
2023-03-23T05:38:03.941Z,1754
2023-03-23T05:39:03.973Z,1819
2023-03-23T05:40:03.937Z,1826
2023-03-23T05:41:03.952Z,1662
2023-03-23T05:42:03.972Z,1489
2023-03-23T05:43:03.948Z,1387
2023-03-23T05:44:03.966Z,1253
2023-03-23T05:45:03.948Z,1109
2023-03-23T05:46:03.953Z,951
2023-03-23T05:47:03.956Z,805
2023-03-23T05:48:03.955Z,713
2023-03-23T05:49:03.974Z,702
2023-03-23T05:50:03.936Z,757
2023-03-23T05:51:03.948Z,851
2023-03-23T05:52:03.952Z,967
2023-03-23T05:53:03.952Z,1052
2023-03-23T05:54:03.958Z,1083
2023-03-23T05:55:03.954Z,1076
2023-03-23T05:56:03.954Z,1118
2023-03-23T05:57:03.965Z,1196
2023-03-23T05:58:03.954Z,1293
2023-03-23T05:59:03.962Z,1415
2023-03-23T06:00:03.946Z,1542
2023-03-23T06:01:03.951Z,1658
2023-03-23T06:02:03.960Z,1710
2023-03-23T06:03:03.964Z,1717
2023-03-23T06:04:03.966Z,1738
2023-03-23T06:05:03.956Z,1800
2023-03-23T06:06:03.938Z,1800
2023-03-23T06:07:03.957Z,2033
2023-03-23T06:08:03.955Z,2112
2023-03-23T06:09:04.515Z,2189
2023-03-23T06:10:03.941Z,2292
2023-03-23T06:11:03.948Z,2427
2023-03-23T06:12:03.958Z,2569
2023-03-23T06:13:03.956Z,2661
2023-03-23T06:14:03.964Z,2739
2023-03-23T06:15:03.959Z,2814
2023-03-23T06:16:03.950Z,2849
2023-03-23T06:17:03.949Z,2777
2023-03-23T06:18:03.965Z,2650
2023-03-23T06:19:03.979Z,2604
2023-03-23T06:20:03.946Z,2622
2023-03-23T06:21:03.979Z,2654
2023-03-23T06:22:03.954Z,2648
2023-03-23T06:23:03.970Z,2633
2023-03-23T06:24:03.959Z,2681
2023-03-23T06:25:03.950Z,2777
2023-03-23T06:26:04.685Z,2917
2023-03-23T06:27:03.970Z,3150
2023-03-23T06:28:03.956Z,3315
2023-03-23T06:29:03.960Z,3457
2023-03-23T06:30:03.945Z,3575
2023-03-23T06:31:03.959Z,3741
2023-03-23T06:32:03.952Z,3953
2023-03-23T06:33:03.953Z,4349
2023-03-23T06:34:03.975Z,4650
2023-03-23T06:35:03.961Z,4416
2023-03-23T06:36:03.979Z,4136
2023-03-23T06:37:03.956Z,4014
2023-03-23T06:38:03.950Z,3935
2023-03-23T06:39:03.977Z,3902
2023-03-23T06:40:03.945Z,4010
2023-03-23T06:41:04.031Z,4163
2023-03-23T06:42:03.980Z,4346
2023-03-23T06:43:03.954Z,4584
2023-03-23T06:44:03.973Z,4799
2023-03-23T06:45:03.955Z,5009
2023-03-23T06:46:03.959Z,5267
2023-03-23T06:47:03.956Z,5623
2023-03-23T06:48:03.949Z,7776
2023-03-23T06:49:03.977Z,9558
2023-03-23T06:50:03.947Z,8731
2023-03-23T06:51:03.953Z,9004
2023-03-23T06:52:03.955Z,8535
2023-03-23T06:53:03.956Z,9225
2023-03-23T06:54:03.977Z,8248
2023-03-23T06:55:03.974Z,6030
2023-03-23T06:56:03.950Z,6648
2023-03-23T06:57:03.971Z,3874
2023-03-23T06:58:03.959Z,3994
2023-03-23T06:59:03.973Z,4512
2023-03-23T07:00:03.954Z,5218
2023-03-23T07:01:03.954Z,5942
2023-03-23T07:02:03.991Z,6519
2023-03-23T07:03:03.951Z,9462
2023-03-23T07:04:03.974Z,8620
2023-03-23T07:05:03.958Z,10192
2023-03-23T07:06:04.164Z,10192
2023-03-23T07:07:03.952Z,9973
2023-03-23T07:08:03.947Z,9169
2023-03-23T07:09:03.975Z,8898
2023-03-23T07:10:03.945Z,8484
2023-03-23T07:11:03.956Z,10379
2023-03-23T07:12:03.986Z,7829
2023-03-23T07:13:03.955Z,6978
2023-03-23T07:14:03.974Z,9461
2023-03-23T07:15:03.955Z,6465
2023-03-23T07:16:03.957Z,6515
2023-03-23T07:17:03.949Z,5476
2023-03-23T07:18:03.953Z,5455
2023-03-23T07:19:03.976Z,5000
2023-03-23T07:20:03.948Z,4971
2023-03-23T07:21:03.962Z,4447
2023-03-23T07:22:03.958Z,4158
2023-03-23T07:23:03.959Z,3999
2023-03-23T07:24:03.979Z,3911
2023-03-23T07:25:03.952Z,4025
2023-03-23T07:26:03.959Z,4252
2023-03-23T07:27:03.972Z,4204
2023-03-23T07:28:03.955Z,4416
2023-03-23T07:29:03.988Z,4652
2023-03-23T07:30:03.953Z,4854
2023-03-23T07:31:03.957Z,4928
2023-03-23T07:32:03.956Z,4871
2023-03-23T07:33:03.951Z,4878
2023-03-23T07:34:03.973Z,4886
2023-03-23T07:35:03.952Z,4805
2023-03-23T07:36:03.971Z,4635
2023-03-23T07:37:03.956Z,4390
2023-03-23T07:38:03.944Z,4180
2023-03-23T07:39:03.977Z,4195
2023-03-23T07:40:03.948Z,4381
2023-03-23T07:41:03.962Z,4643
2023-03-23T07:42:03.976Z,4703
2023-03-23T07:43:03.952Z,4783
2023-03-23T07:44:03.971Z,4808
2023-03-23T07:45:03.956Z,4969
2023-03-23T07:46:03.947Z,5173
2023-03-23T07:47:03.950Z,5323
2023-03-23T07:48:07.372Z,5363
2023-03-23T07:49:03.972Z,5400
2023-03-23T07:50:03.946Z,5172
2023-03-23T07:51:03.950Z,4995
2023-03-23T07:52:03.950Z,4893
2023-03-23T07:53:03.946Z,4836
2023-03-23T07:54:06.306Z,4707
2023-03-23T07:55:03.961Z,4243
2023-03-23T07:56:04.059Z,3677
2023-03-23T07:57:03.980Z,3444
2023-03-23T07:58:03.950Z,3500
2023-03-23T07:59:03.973Z,3752
2023-03-23T08:00:03.946Z,4268
2023-03-23T08:01:03.954Z,4890
2023-03-23T08:02:03.948Z,5455
2023-03-23T08:03:03.949Z,5693
2023-03-23T08:04:03.971Z,5723
2023-03-23T08:05:03.950Z,5844
2023-03-23T08:06:03.944Z,5844
2023-03-23T08:07:03.956Z,5966
2023-03-23T08:08:03.959Z,5924
2023-03-23T08:09:03.975Z,5859
2023-03-23T08:10:03.940Z,5798
2023-03-23T08:11:03.945Z,6040
2023-03-23T08:12:03.970Z,6206
2023-03-23T08:13:03.950Z,6259
2023-03-23T08:14:03.987Z,6493
2023-03-23T08:15:03.950Z,6935
2023-03-23T08:16:03.949Z,7103
2023-03-23T08:17:03.941Z,7000
2023-03-23T08:18:03.948Z,7511
2023-03-23T08:19:08.462Z,8368
2023-03-23T08:20:03.936Z,9094
2023-03-23T08:21:03.950Z,9879
2023-03-23T08:22:03.950Z,11051
2023-03-23T08:23:03.948Z,12264
2023-03-23T08:24:03.978Z,11696
2023-03-23T08:25:03.945Z,12321
2023-03-23T08:26:03.959Z,10803
2023-03-23T08:27:03.973Z,13219
2023-03-23T08:28:03.952Z,17825
2023-03-23T08:29:03.970Z,13635
2023-03-23T08:30:03.944Z,18061
2023-03-23T08:31:03.945Z,18878
2023-03-23T08:32:03.951Z,16247
2023-03-23T08:33:03.951Z,17563
2023-03-23T08:34:03.967Z,12063
2023-03-23T08:35:03.953Z,13969
2023-03-23T08:36:04.009Z,11757
2023-03-23T08:37:03.950Z,10767
2023-03-23T08:38:03.948Z,10235
2023-03-23T08:39:03.965Z,9009
2023-03-23T08:40:04.004Z,7704
2023-03-23T08:41:03.946Z,6397
2023-03-23T08:42:03.979Z,6639
2023-03-23T08:43:03.947Z,8159
2023-03-23T08:44:03.962Z,9501
2023-03-23T08:45:03.963Z,10109
2023-03-23T08:46:03.970Z,10390
2023-03-23T08:47:03.951Z,6816
2023-03-23T08:48:03.974Z,5441
2023-03-23T08:49:03.972Z,5719
2023-03-23T08:50:03.943Z,6027
2023-03-23T08:51:03.948Z,5826
2023-03-23T08:52:03.963Z,5953
2023-03-23T08:53:03.956Z,6414
2023-03-23T08:54:03.967Z,6740
2023-03-23T08:55:03.955Z,7118
2023-03-23T08:56:03.948Z,7568
2023-03-23T08:57:03.958Z,7675
2023-03-23T08:58:03.953Z,8528
2023-03-23T08:59:03.970Z,9634
2023-03-23T09:00:03.956Z,10885
2023-03-23T09:01:03.959Z,10782
2023-03-23T09:02:03.952Z,10683
2023-03-23T09:03:03.947Z,11680
2023-03-23T09:04:03.971Z,15626
2023-03-23T09:05:03.993Z,13167
2023-03-23T09:06:03.954Z,13167
2023-03-23T09:07:03.952Z,10791
2023-03-23T09:08:03.950Z,10229
2023-03-23T09:09:03.965Z,10692
2023-03-23T09:10:03.939Z,11958
2023-03-23T09:11:03.950Z,10338
2023-03-23T09:12:03.971Z,11379
2023-03-23T09:13:03.952Z,12596
2023-03-23T09:14:03.973Z,9695
2023-03-23T09:15:03.952Z,9098
2023-03-23T09:16:03.962Z,8524
2023-03-23T09:17:03.963Z,7063
2023-03-23T09:18:03.952Z,7249
2023-03-23T09:19:03.974Z,8117
2023-03-23T09:20:03.940Z,8342
2023-03-23T09:21:03.962Z,7964
2023-03-23T09:22:03.961Z,6782
2023-03-23T09:23:03.972Z,5925
2023-03-23T09:24:03.975Z,5603
2023-03-23T09:25:04.696Z,5675
2023-03-23T09:26:03.956Z,6198
2023-03-23T09:27:03.983Z,6771
2023-03-23T09:28:03.944Z,6347
2023-03-23T09:29:03.979Z,6099
2023-03-23T09:30:03.948Z,5734
2023-03-23T09:31:03.951Z,5785
2023-03-23T09:32:03.954Z,6602
2023-03-23T09:33:03.972Z,8211
2023-03-23T09:34:03.964Z,11197
2023-03-23T09:35:03.971Z,14598
2023-03-23T09:36:03.945Z,11186
2023-03-23T09:37:03.950Z,7544
2023-03-23T09:38:03.953Z,6526
2023-03-23T09:39:03.964Z,6235
2023-03-23T09:40:06.875Z,6069
2023-03-23T09:41:03.954Z,6018
2023-03-23T09:42:03.968Z,6169
2023-03-23T09:43:03.954Z,6607
2023-03-23T09:44:03.984Z,7094
2023-03-23T09:45:03.958Z,7223
2023-03-23T09:46:03.951Z,7269
2023-03-23T09:47:03.952Z,7317
2023-03-23T09:48:03.953Z,6923
2023-03-23T09:49:04.003Z,6486
2023-03-23T09:50:03.945Z,5933
2023-03-23T09:51:03.954Z,5240
2023-03-23T09:52:03.958Z,4606
2023-03-23T09:53:03.980Z,4392
2023-03-23T09:54:03.975Z,4458
2023-03-23T09:55:03.952Z,4624
2023-03-23T09:56:03.961Z,4683
2023-03-23T09:57:03.968Z,4685
2023-03-23T09:58:03.952Z,4965
2023-03-23T09:59:03.982Z,5205
2023-03-23T10:00:03.941Z,5159
2023-03-23T10:01:03.983Z,5063
2023-03-23T10:02:03.947Z,5078
2023-03-23T10:03:03.949Z,5577
2023-03-23T10:04:03.968Z,6244
2023-03-23T10:05:03.956Z,6659
2023-03-23T10:06:03.945Z,6659
2023-03-23T10:07:03.945Z,6659
2023-03-23T10:08:03.957Z,6480
2023-03-23T10:09:03.977Z,6331
2023-03-23T10:10:03.959Z,5594
2023-03-23T10:11:03.965Z,5607
2023-03-23T10:12:03.970Z,5892
2023-03-23T10:13:03.956Z,5758
2023-03-23T10:14:03.973Z,5361
2023-03-23T10:15:03.952Z,5179
2023-03-23T10:16:03.952Z,4845
2023-03-23T10:17:03.970Z,4591
2023-03-23T10:18:03.955Z,4666
2023-03-23T10:19:03.965Z,4989
2023-03-23T10:20:03.947Z,5325
2023-03-23T10:21:03.950Z,5503
2023-03-23T10:22:03.958Z,5557
2023-03-23T10:23:03.954Z,5645
2023-03-23T10:24:03.961Z,5671
2023-03-23T10:25:03.954Z,5623
2023-03-23T10:26:03.952Z,5465
2023-03-23T10:27:03.977Z,5229
2023-03-23T10:28:03.956Z,5002
2023-03-23T10:29:03.972Z,4993
2023-03-23T10:30:03.947Z,5192
2023-03-23T10:31:03.968Z,5391
2023-03-23T10:32:03.954Z,5581
2023-03-23T10:33:03.956Z,5802
2023-03-23T10:34:03.962Z,6176
2023-03-23T10:35:03.962Z,6524
2023-03-23T10:36:04.001Z,6395
2023-03-23T10:37:03.953Z,6049
2023-03-23T10:38:03.955Z,5782
2023-03-23T10:39:03.978Z,5953
2023-03-23T10:40:03.943Z,6265
2023-03-23T10:41:03.953Z,6532
2023-03-23T10:42:03.980Z,6712
2023-03-23T10:43:03.946Z,7098
2023-03-23T10:44:03.972Z,7230
2023-03-23T10:45:03.950Z,7136
2023-03-23T10:46:04.204Z,7171
2023-03-23T10:47:03.965Z,6777
2023-03-23T10:48:03.957Z,6475
2023-03-23T10:49:03.980Z,6523
2023-03-23T10:50:03.945Z,6775
2023-03-23T10:51:03.967Z,7612
2023-03-23T10:52:03.949Z,9271
2023-03-23T10:53:05.143Z,9636
2023-03-23T10:54:03.976Z,9381
2023-03-23T10:55:03.963Z,9934
2023-03-23T10:56:03.960Z,10231
2023-03-23T10:57:04.064Z,9765
2023-03-23T10:58:03.956Z,9216
2023-03-23T10:59:04.016Z,8969
2023-03-23T11:00:04.326Z,8054
2023-03-23T11:01:03.967Z,7114
2023-03-23T11:02:03.962Z,6489
2023-03-23T11:03:05.162Z,6401
2023-03-23T11:04:03.974Z,6416
2023-03-23T11:05:09.375Z,6390
2023-03-23T11:06:03.966Z,5957
2023-03-23T11:07:03.950Z,5957
2023-03-23T11:08:03.957Z,5247
2023-03-23T11:09:03.976Z,5365
2023-03-23T11:10:03.947Z,5601
2023-03-23T11:11:03.953Z,5852
2023-03-23T11:12:03.999Z,5975
2023-03-23T11:13:03.947Z,5924
2023-03-23T11:14:03.974Z,5756
2023-03-23T11:15:03.954Z,5625
2023-03-23T11:16:03.952Z,5527
2023-03-23T11:17:10.436Z,5527
2023-03-23T11:18:03.955Z,5581
2023-03-23T11:19:03.972Z,5660
2023-03-23T11:20:03.947Z,5717
2023-03-23T11:21:03.944Z,5844
2023-03-23T11:22:03.944Z,5975
2023-03-23T11:23:03.960Z,6038
2023-03-23T11:24:09.524Z,6178
2023-03-23T11:25:03.963Z,6224
2023-03-23T11:26:03.957Z,6279
2023-03-23T11:27:03.990Z,6342
2023-03-23T11:28:03.971Z,6353
2023-03-23T11:29:03.988Z,6303
2023-03-23T11:30:03.949Z,6204
2023-03-23T11:31:03.965Z,6182
2023-03-23T11:32:03.958Z,6191
2023-03-23T11:33:03.956Z,6289
2023-03-23T11:34:06.140Z,6336
2023-03-23T11:35:15.551Z,6290
2023-03-23T11:36:03.970Z,6148
2023-03-23T11:37:03.962Z,5999
2023-03-23T11:38:03.957Z,5872
2023-03-23T11:39:03.970Z,5789
2023-03-23T11:40:03.942Z,5761
2023-03-23T11:41:03.957Z,5748
2023-03-23T11:42:09.612Z,5671
2023-03-23T11:43:03.962Z,5658
2023-03-23T11:44:03.975Z,5806
2023-03-23T11:45:03.955Z,5931
2023-03-23T11:46:03.954Z,6307
2023-03-23T11:47:03.961Z,6775
2023-03-23T11:48:03.977Z,7476
2023-03-23T11:49:12.733Z,8419
2023-03-23T11:50:03.953Z,9280
2023-03-23T11:51:03.952Z,9510
2023-03-23T11:52:03.960Z,9641
2023-03-23T11:53:03.957Z,9335
2023-03-23T11:54:03.973Z,8628
2023-03-23T11:55:03.953Z,7835
2023-03-23T11:56:03.985Z,7219
2023-03-23T11:57:03.968Z,7059
2023-03-23T11:58:03.953Z,7581
2023-03-23T11:59:03.956Z,8832
2023-03-23T12:00:03.943Z,9920
2023-03-23T12:01:03.951Z,10596
2023-03-23T12:02:16.748Z,10592
2023-03-23T12:03:03.949Z,10133
2023-03-23T12:04:03.964Z,9745
2023-03-23T12:05:03.958Z,9562
2023-03-23T12:06:03.956Z,8443
2023-03-23T12:07:03.956Z,8443
2023-03-23T12:08:03.955Z,8036
2023-03-23T12:09:03.969Z,7606
2023-03-23T12:10:03.944Z,7265
2023-03-23T12:11:04.109Z,7142
2023-03-23T12:12:03.973Z,7265
2023-03-23T12:13:03.959Z,7417
2023-03-23T12:14:03.964Z,7179
2023-03-23T12:15:03.958Z,6746
2023-03-23T12:16:03.957Z,6250
2023-03-23T12:17:03.948Z,5994
2023-03-23T12:18:03.949Z,5920
2023-03-23T12:19:03.962Z,5964
2023-03-23T12:20:03.939Z,6077
2023-03-23T12:21:03.956Z,6117
2023-03-23T12:22:03.948Z,5914
2023-03-23T12:23:03.953Z,5612
2023-03-23T12:24:05.250Z,5339
2023-03-23T12:25:03.957Z,5122
2023-03-23T12:26:03.957Z,4961
2023-03-23T12:27:03.976Z,4779
2023-03-23T12:28:03.979Z,4550
2023-03-23T12:29:03.971Z,4373
2023-03-23T12:30:03.946Z,4429
2023-03-23T12:31:03.951Z,4438
2023-03-23T12:32:03.985Z,4443
2023-03-23T12:33:03.945Z,4467
2023-03-23T12:34:03.971Z,4407
2023-03-23T12:35:03.958Z,4403
2023-03-23T12:36:03.956Z,4396
2023-03-23T12:37:03.958Z,4464
2023-03-23T12:38:03.958Z,4569
2023-03-23T12:39:03.959Z,4534
2023-03-23T12:40:03.954Z,4473
2023-03-23T12:41:03.976Z,4355
2023-03-23T12:42:03.972Z,4200
2023-03-23T12:43:03.956Z,4029
2023-03-23T12:44:03.983Z,3743
2023-03-23T12:45:03.952Z,3444
2023-03-23T12:46:03.956Z,3295
2023-03-23T12:47:03.959Z,3314
2023-03-23T12:48:03.963Z,3494
2023-03-23T12:49:04.009Z,3679
2023-03-23T12:50:03.948Z,3905
2023-03-23T12:51:03.962Z,4112
2023-03-23T12:52:03.960Z,4099
2023-03-23T12:53:03.962Z,4029
2023-03-23T12:54:03.976Z,4093
2023-03-23T12:55:03.961Z,4051
2023-03-23T12:56:03.960Z,3903
2023-03-23T12:57:03.976Z,4014
2023-03-23T12:58:03.957Z,4303
2023-03-23T12:59:03.974Z,4698
2023-03-23T13:00:03.944Z,5065
2023-03-23T13:01:03.960Z,5146
2023-03-23T13:02:03.979Z,4749
2023-03-23T13:03:03.959Z,4696
2023-03-23T13:04:03.979Z,4812
2023-03-23T13:05:03.974Z,5004
2023-03-23T13:06:03.952Z,5172
2023-03-23T13:07:03.962Z,5172
2023-03-23T13:08:03.967Z,5190
2023-03-23T13:09:03.982Z,5289
2023-03-23T13:10:05.373Z,5317
2023-03-23T13:11:03.969Z,5092
2023-03-23T13:12:03.976Z,4860
2023-03-23T13:13:03.960Z,4831
2023-03-23T13:14:03.982Z,4628
2023-03-23T13:15:03.957Z,4462
2023-03-23T13:16:03.961Z,4508
2023-03-23T13:17:03.973Z,4635
2023-03-23T13:18:03.958Z,4899
2023-03-23T13:19:03.977Z,4978
2023-03-23T13:20:03.965Z,4967
2023-03-23T13:21:03.958Z,5037
2023-03-23T13:22:03.955Z,5166
2023-03-23T13:23:03.973Z,5339
2023-03-23T13:24:03.976Z,5441
2023-03-23T13:25:03.968Z,5354
2023-03-23T13:26:03.959Z,5183
2023-03-23T13:27:03.978Z,5125
2023-03-23T13:28:03.963Z,5109
2023-03-23T13:29:04.014Z,5057
2023-03-23T13:30:03.964Z,5006
2023-03-23T13:31:03.960Z,5052
2023-03-23T13:32:03.968Z,5175
2023-03-23T13:33:03.960Z,5312
2023-03-23T13:34:03.981Z,5376
2023-03-23T13:35:03.961Z,5396
2023-03-23T13:36:06.070Z,5325
2023-03-23T13:37:03.974Z,5321
2023-03-23T13:38:03.959Z,5372
2023-03-23T13:39:03.970Z,5419
2023-03-23T13:40:03.946Z,5308
2023-03-23T13:41:03.978Z,5074
2023-03-23T13:42:03.988Z,4847
2023-03-23T13:43:03.953Z,4602
2023-03-23T13:44:03.989Z,4464
2023-03-23T13:45:03.964Z,4608
2023-03-23T13:46:03.959Z,4880
2023-03-23T13:47:03.965Z,5046